sensor_id;sensor_type;location;lat;lon;timestamp;temperature;humidity
5743;DHT22;2896;53.500;10.020;2023-07-31T00:01:29;14.40;99.90
5743;DHT22;2896;53.500;10.020;2023-07-31T00:03:55;14.50;99.90
5743;DHT22;2896;53.500;10.020;2023-07-31T00:06:23;14.50;99.90
5743;DHT22;2896;53.500;10.020;2023-07-31T00:08:50;14.40;99.90
5743;DHT22;2896;53.500;10.020;2023-07-31T00:11:16;14.50;99.90
5743;DHT22;2896;53.500;10.020;2023-07-31T00:13:43;14.50;99.90
5743;DHT22;2896;53.500;10.020;2023-07-31T00:16:10;14.50;99.90
5743;DHT22;2896;53.500;10.020;2023-07-31T00:18:36;14.50;84.30
5743;DHT22;2896;53.500;10.020;2023-07-31T00:21:03;14.40;1.00
5743;DHT22;2896;53.500;10.020;2023-07-31T00:23:31;14.40;1.00
5743;DHT22;2896;53.500;10.020;2023-07-31T00:25:58;14.40;99.90
5743;DHT22;2896;53.500;10.020;2023-07-31T00:28:24;14.40;99.90
5743;DHT22;2896;53.500;10.020;2023-07-31T00:30:51;14.40;1.00
5743;DHT22;2896;53.500;10.020;2023-07-31T00:33:17;14.40;1.00
5743;DHT22;2896;53.500;10.020;2023-07-31T00:35:44;14.40;99.90
5743;DHT22;2896;53.500;10.020;2023-07-31T00:38:11;14.40;99.90
5743;DHT22;2896;53.500;10.020;2023-07-31T00:40:39;14.40;1.00
5743;DHT22;2896;53.500;10.020;2023-07-31T00:43:05;14.40;1.00
5743;DHT22;2896;53.500;10.020;2023-07-31T00:45:32;14.40;1.00
5743;DHT22;2896;53.500;10.020;2023-07-31T00:47:59;14.40;1.00
5743;DHT22;2896;53.500;10.020;2023-07-31T00:50:27;14.40;1.00
5743;DHT22;2896;53.500;10.020;2023-07-31T00:52:54;14.40;1.00
5743;DHT22;2896;53.500;10.020;2023-07-31T00:55:21;14.40;1.00
5743;DHT22;2896;53.500;10.020;2023-07-31T00:57:49;14.40;99.90
5743;DHT22;2896;53.500;10.020;2023-07-31T01:00:18;14.40;1.00
5743;DHT22;2896;53.500;10.020;2023-07-31T01:02:45;14.50;1.00
5743;DHT22;2896;53.500;10.020;2023-07-31T01:05:11;14.40;99.90
5743;DHT22;2896;53.500;10.020;2023-07-31T01:07:42;14.30;99.90
5743;DHT22;2896;53.500;10.020;2023-07-31T01:10:16;14.40;1.00
5743;DHT22;2896;53.500;10.020;2023-07-31T01:12:46;14.40;99.90
5743;DHT22;2896;53.500;10.020;2023-07-31T01:15:15;14.40;99.90
5743;DHT22;2896;53.500;10.020;2023-07-31T01:17:43;14.40;99.90
5743;DHT22;2896;53.500;10.020;2023-07-31T01:20:12;14.30;32.70
5743;DHT22;2896;53.500;10.020;2023-07-31T01:22:59;14.30;1.00
5743;DHT22;2896;53.500;10.020;2023-07-31T01:25:47;14.30;1.00
5743;DHT22;2896;53.500;10.020;2023-07-31T01:28:17;14.30;1.00
5743;DHT22;2896;53.500;10.020;2023-07-31T01:30:48;14.30;1.00
5743;DHT22;2896;53.500;10.020;2023-07-31T01:33:16;14.30;1.00
5743;DHT22;2896;53.500;10.020;2023-07-31T01:35:44;14.30;1.00
5743;DHT22;2896;53.500;10.020;2023-07-31T01:38:11;14.40;1.00
5743;DHT22;2896;53.500;10.020;2023-07-31T01:40:41;14.40;1.00
5743;DHT22;2896;53.500;10.020;2023-07-31T01:43:09;14.40;55.00
5743;DHT22;2896;53.500;10.020;2023-07-31T01:45:36;14.40;99.90
5743;DHT22;2896;53.500;10.020;2023-07-31T01:48:03;14.40;71.50
5743;DHT22;2896;53.500;10.020;2023-07-31T01:50:29;14.40;82.60
5743;DHT22;2896;53.500;10.020;2023-07-31T01:52:56;14.40;99.90
5743;DHT22;2896;53.500;10.020;2023-07-31T01:55:22;14.40;99.90
5743;DHT22;2896;53.500;10.020;2023-07-31T01:57:49;14.40;99.90
5743;DHT22;2896;53.500;10.020;2023-07-31T02:00:17;14.50;1.00
5743;DHT22;2896;53.500;10.020;2023-07-31T02:02:44;14.50;1.00
5743;DHT22;2896;53.500;10.020;2023-07-31T02:05:10;14.60;1.00
5743;DHT22;2896;53.500;10.020;2023-07-31T02:07:37;14.60;1.00
5743;DHT22;2896;53.500;10.020;2023-07-31T02:10:04;14.60;99.90
5743;DHT22;2896;53.500;10.020;2023-07-31T02:12:31;14.60;99.90
5743;DHT22;2896;53.500;10.020;2023-07-31T02:14:59;14.60;99.90
5743;DHT22;2896;53.500;10.020;2023-07-31T02:17:27;14.70;99.90
5743;DHT22;2896;53.500;10.020;2023-07-31T02:19:54;14.70;99.90
5743;DHT22;2896;53.500;10.020;2023-07-31T02:22:20;14.70;99.90
5743;DHT22;2896;53.500;10.020;2023-07-31T02:24:47;14.70;99.90
5743;DHT22;2896;53.500;10.020;2023-07-31T02:27:14;14.80;99.90
5743;DHT22;2896;53.500;10.020;2023-07-31T02:29:41;14.80;18.90
5743;DHT22;2896;53.500;10.020;2023-07-31T02:32:07;14.70;1.00
5743;DHT22;2896;53.500;10.020;2023-07-31T02:34:35;14.70;1.00
5743;DHT22;2896;53.500;10.020;2023-07-31T02:37:02;14.70;1.00
5743;DHT22;2896;53.500;10.020;2023-07-31T02:39:29;14.70;1.00
5743;DHT22;2896;53.500;10.020;2023-07-31T02:41:55;14.80;99.90
5743;DHT22;2896;53.500;10.020;2023-07-31T02:44:22;14.80;99.90
5743;DHT22;2896;53.500;10.020;2023-07-31T02:46:49;14.80;99.90
5743;DHT22;2896;53.500;10.020;2023-07-31T02:49:15;14.80;99.90
5743;DHT22;2896;53.500;10.020;2023-07-31T02:51:43;14.80;99.90
5743;DHT22;2896;53.500;10.020;2023-07-31T02:54:10;14.80;99.90
5743;DHT22;2896;53.500;10.020;2023-07-31T02:56:36;14.90;1.00
5743;DHT22;2896;53.500;10.020;2023-07-31T02:59:03;14.90;1.00
5743;DHT22;2896;53.500;10.020;2023-07-31T03:01:30;14.90;1.00
5743;DHT22;2896;53.500;10.020;2023-07-31T03:03:57;14.90;1.00
5743;DHT22;2896;53.500;10.020;2023-07-31T03:06:23;14.90;1.00
5743;DHT22;2896;53.500;10.020;2023-07-31T03:08:53;14.90;1.00
5743;DHT22;2896;53.500;10.020;2023-07-31T03:11:19;14.90;99.90
5743;DHT22;2896;53.500;10.020;2023-07-31T03:13:46;14.90;1.00
5743;DHT22;2896;53.500;10.020;2023-07-31T03:16:13;15.00;1.00
5743;DHT22;2896;53.500;10.020;2023-07-31T03:18:39;14.90;99.90
5743;DHT22;2896;53.500;10.020;2023-07-31T03:21:06;15.00;99.90
5743;DHT22;2896;53.500;10.020;2023-07-31T03:23:33;15.00;99.90
5743;DHT22;2896;53.500;10.020;2023-07-31T03:26:02;15.00;99.90
5743;DHT22;2896;53.500;10.020;2023-07-31T03:28:30;15.00;95.20
5743;DHT22;2896;53.500;10.020;2023-07-31T03:30:56;15.00;1.00
5743;DHT22;2896;53.500;10.020;2023-07-31T03:33:23;15.00;99.90
5743;DHT22;2896;53.500;10.020;2023-07-31T03:35:50;15.10;1.00
5743;DHT22;2896;53.500;10.020;2023-07-31T03:38:16;15.00;1.00
5743;DHT22;2896;53.500;10.020;2023-07-31T03:40:43;15.10;1.00
5743;DHT22;2896;53.500;10.020;2023-07-31T03:43:11;15.10;1.00
5743;DHT22;2896;53.500;10.020;2023-07-31T03:45:38;15.10;99.90
5743;DHT22;2896;53.500;10.020;2023-07-31T03:48:05;15.10;99.90
5743;DHT22;2896;53.500;10.020;2023-07-31T03:50:33;15.10;99.90
5743;DHT22;2896;53.500;10.020;2023-07-31T03:52:59;15.20;99.90
5743;DHT22;2896;53.500;10.020;2023-07-31T03:55:26;15.20;99.90
5743;DHT22;2896;53.500;10.020;2023-07-31T03:57:53;15.20;99.90
5743;DHT22;2896;53.500;10.020;2023-07-31T04:00:21;15.20;99.90
5743;DHT22;2896;53.500;10.020;2023-07-31T04:02:48;15.30;1.00
5743;DHT22;2896;53.500;10.020;2023-07-31T04:05:14;15.40;1.00
5743;DHT22;2896;53.500;10.020;2023-07-31T04:07:41;15.30;1.00
5743;DHT22;2896;53.500;10.020;2023-07-31T04:10:08;15.40;99.90
5743;DHT22;2896;53.500;10.020;2023-07-31T04:12:35;15.40;38.10
5743;DHT22;2896;53.500;10.020;2023-07-31T04:15:02;15.40;1.00
5743;DHT22;2896;53.500;10.020;2023-07-31T04:17:30;15.40;1.00
5743;DHT22;2896;53.500;10.020;2023-07-31T04:19:57;15.40;1.00
5743;DHT22;2896;53.500;10.020;2023-07-31T04:22:24;15.40;1.00
5743;DHT22;2896;53.500;10.020;2023-07-31T04:24:50;15.40;1.00
5743;DHT22;2896;53.500;10.020;2023-07-31T04:27:17;15.50;1.00
5743;DHT22;2896;53.500;10.020;2023-07-31T04:29:44;15.50;1.00
5743;DHT22;2896;53.500;10.020;2023-07-31T04:32:12;15.50;99.90
5743;DHT22;2896;53.500;10.020;2023-07-31T04:34:42;15.50;94.10
5743;DHT22;2896;53.500;10.020;2023-07-31T04:37:09;15.50;1.00
5743;DHT22;2896;53.500;10.020;2023-07-31T04:39:35;15.50;1.00
5743;DHT22;2896;53.500;10.020;2023-07-31T04:42:02;15.50;1.00
5743;DHT22;2896;53.500;10.020;2023-07-31T04:44:29;15.50;1.00
5743;DHT22;2896;53.500;10.020;2023-07-31T04:46:56;15.50;1.00
5743;DHT22;2896;53.500;10.020;2023-07-31T04:49:23;15.40;1.00
5743;DHT22;2896;53.500;10.020;2023-07-31T04:51:51;15.50;1.00
5743;DHT22;2896;53.500;10.020;2023-07-31T04:54:18;15.50;1.00
5743;DHT22;2896;53.500;10.020;2023-07-31T04:56:45;15.50;1.00
5743;DHT22;2896;53.500;10.020;2023-07-31T04:59:12;15.50;1.00
5743;DHT22;2896;53.500;10.020;2023-07-31T05:01:39;14.20;99.90
5743;DHT22;2896;53.500;10.020;2023-07-31T05:04:06;15.60;99.90
5743;DHT22;2896;53.500;10.020;2023-07-31T05:06:32;15.60;30.10
5743;DHT22;2896;53.500;10.020;2023-07-31T05:09:00;15.50;1.00
5743;DHT22;2896;53.500;10.020;2023-07-31T05:11:27;15.60;41.40
5743;DHT22;2896;53.500;10.020;2023-07-31T05:13:53;15.60;99.90
5743;DHT22;2896;53.500;10.020;2023-07-31T05:16:20;15.60;90.40
5743;DHT22;2896;53.500;10.020;2023-07-31T05:18:47;15.60;99.90
5743;DHT22;2896;53.500;10.020;2023-07-31T05:21:14;15.70;33.40
5743;DHT22;2896;53.500;10.020;2023-07-31T05:23:40;15.60;1.00
5743;DHT22;2896;53.500;10.020;2023-07-31T05:26:08;15.60;1.00
5743;DHT22;2896;53.500;10.020;2023-07-31T05:28:36;15.60;1.00
5743;DHT22;2896;53.500;10.020;2023-07-31T05:31:03;15.60;1.00
5743;DHT22;2896;53.500;10.020;2023-07-31T05:33:30;15.60;1.00
5743;DHT22;2896;53.500;10.020;2023-07-31T05:35:57;15.70;1.00
5743;DHT22;2896;53.500;10.020;2023-07-31T05:38:24;15.70;1.00
5743;DHT22;2896;53.500;10.020;2023-07-31T05:40:51;15.60;1.00
5743;DHT22;2896;53.500;10.020;2023-07-31T05:43:19;15.60;29.50
5743;DHT22;2896;53.500;10.020;2023-07-31T05:45:45;15.70;99.90
5743;DHT22;2896;53.500;10.020;2023-07-31T05:48:12;15.70;90.10
5743;DHT22;2896;53.500;10.020;2023-07-31T05:50:39;15.70;1.00
5743;DHT22;2896;53.500;10.020;2023-07-31T05:53:05;15.70;1.00
5743;DHT22;2896;53.500;10.020;2023-07-31T05:55:33;15.70;1.00
5743;DHT22;2896;53.500;10.020;2023-07-31T05:58:00;15.80;1.00
5743;DHT22;2896;53.500;10.020;2023-07-31T06:00:28;15.80;1.00
5743;DHT22;2896;53.500;10.020;2023-07-31T06:02:55;15.80;1.00
5743;DHT22;2896;53.500;10.020;2023-07-31T06:05:21;15.90;1.00
5743;DHT22;2896;53.500;10.020;2023-07-31T06:07:48;15.90;1.00
5743;DHT22;2896;53.500;10.020;2023-07-31T06:10:15;16.00;1.00
5743;DHT22;2896;53.500;10.020;2023-07-31T06:12:41;16.00;1.00
5743;DHT22;2896;53.500;10.020;2023-07-31T06:15:08;16.00;1.00
5743;DHT22;2896;53.500;10.020;2023-07-31T06:17:36;16.10;1.00
5743;DHT22;2896;53.500;10.020;2023-07-31T06:20:04;16.10;1.00
5743;DHT22;2896;53.500;10.020;2023-07-31T06:22:31;16.10;1.00
5743;DHT22;2896;53.500;10.020;2023-07-31T06:24:58;16.20;1.00
5743;DHT22;2896;53.500;10.020;2023-07-31T06:27:25;16.20;1.00
5743;DHT22;2896;53.500;10.020;2023-07-31T06:29:51;16.30;1.00
5743;DHT22;2896;53.500;10.020;2023-07-31T06:32:18;16.30;1.00
5743;DHT22;2896;53.500;10.020;2023-07-31T06:34:46;16.20;1.00
5743;DHT22;2896;53.500;10.020;2023-07-31T06:37:13;16.30;1.00
5743;DHT22;2896;53.500;10.020;2023-07-31T06:39:39;16.30;1.00
5743;DHT22;2896;53.500;10.020;2023-07-31T06:42:06;16.40;1.00
5743;DHT22;2896;53.500;10.020;2023-07-31T06:44:33;16.40;99.90
5743;DHT22;2896;53.500;10.020;2023-07-31T06:46:59;16.40;94.00
5743;DHT22;2896;53.500;10.020;2023-07-31T06:49:26;16.50;42.20
5743;DHT22;2896;53.500;10.020;2023-07-31T06:51:54;16.60;41.00
5743;DHT22;2896;53.500;10.020;2023-07-31T06:54:20;16.60;1.00
5743;DHT22;2896;53.500;10.020;2023-07-31T06:56:47;16.60;1.00
5743;DHT22;2896;53.500;10.020;2023-07-31T06:59:13;16.60;1.00
5743;DHT22;2896;53.500;10.020;2023-07-31T07:01:40;16.60;1.00
5743;DHT22;2896;53.500;10.020;2023-07-31T07:04:07;16.60;1.00
5743;DHT22;2896;53.500;10.020;2023-07-31T07:06:33;16.60;1.00
5743;DHT22;2896;53.500;10.020;2023-07-31T07:09:01;16.60;1.00
5743;DHT22;2896;53.500;10.020;2023-07-31T07:11:28;16.60;1.00
5743;DHT22;2896;53.500;10.020;2023-07-31T07:13:55;16.60;1.00
5743;DHT22;2896;53.500;10.020;2023-07-31T07:16:21;16.60;1.00
5743;DHT22;2896;53.500;10.020;2023-07-31T07:18:48;16.60;1.00
5743;DHT22;2896;53.500;10.020;2023-07-31T07:21:15;16.50;1.00
5743;DHT22;2896;53.500;10.020;2023-07-31T07:23:43;16.50;1.00
5743;DHT22;2896;53.500;10.020;2023-07-31T07:26:11;16.60;1.00
5743;DHT22;2896;53.500;10.020;2023-07-31T07:28:38;16.60;1.00
5743;DHT22;2896;53.500;10.020;2023-07-31T07:31:04;16.60;1.00
5743;DHT22;2896;53.500;10.020;2023-07-31T07:33:31;16.70;1.00
5743;DHT22;2896;53.500;10.020;2023-07-31T07:36:00;16.70;1.00
5743;DHT22;2896;53.500;10.020;2023-07-31T07:38:27;16.70;1.00
5743;DHT22;2896;53.500;10.020;2023-07-31T07:40:53;16.80;1.00
5743;DHT22;2896;53.500;10.020;2023-07-31T07:43:21;16.90;1.00
5743;DHT22;2896;53.500;10.020;2023-07-31T07:45:48;17.00;1.00
5743;DHT22;2896;53.500;10.020;2023-07-31T07:48:15;17.00;1.00
5743;DHT22;2896;53.500;10.020;2023-07-31T07:50:42;17.10;1.00
5743;DHT22;2896;53.500;10.020;2023-07-31T07:53:09;17.20;1.00
5743;DHT22;2896;53.500;10.020;2023-07-31T07:55:36;17.30;1.00
5743;DHT22;2896;53.500;10.020;2023-07-31T07:58:02;17.30;99.90
5743;DHT22;2896;53.500;10.020;2023-07-31T08:00:30;17.40;99.90
5743;DHT22;2896;53.500;10.020;2023-07-31T08:02:57;17.60;99.90
5743;DHT22;2896;53.500;10.020;2023-07-31T08:05:23;17.70;99.90
5743;DHT22;2896;53.500;10.020;2023-07-31T08:07:50;17.70;99.90
5743;DHT22;2896;53.500;10.020;2023-07-31T08:10:17;17.80;99.90
5743;DHT22;2896;53.500;10.020;2023-07-31T08:12:43;17.80;99.90
5743;DHT22;2896;53.500;10.020;2023-07-31T08:15:10;17.80;99.90
5743;DHT22;2896;53.500;10.020;2023-07-31T08:17:38;17.80;99.90
5743;DHT22;2896;53.500;10.020;2023-07-31T08:20:06;17.90;99.90
5743;DHT22;2896;53.500;10.020;2023-07-31T08:22:33;18.00;99.90
5743;DHT22;2896;53.500;10.020;2023-07-31T08:25:00;18.10;99.90
5743;DHT22;2896;53.500;10.020;2023-07-31T08:27:26;17.90;99.90
5743;DHT22;2896;53.500;10.020;2023-07-31T08:29:53;18.00;99.90
5743;DHT22;2896;53.500;10.020;2023-07-31T08:32:19;18.00;99.90
5743;DHT22;2896;53.500;10.020;2023-07-31T08:34:47;18.10;96.00
5743;DHT22;2896;53.500;10.020;2023-07-31T08:37:14;18.20;87.50
5743;DHT22;2896;53.500;10.020;2023-07-31T08:39:41;18.30;70.10
5743;DHT22;2896;53.500;10.020;2023-07-31T08:42:08;18.40;68.20
5743;DHT22;2896;53.500;10.020;2023-07-31T08:44:36;18.30;1.00
5743;DHT22;2896;53.500;10.020;2023-07-31T08:47:04;18.30;1.00
5743;DHT22;2896;53.500;10.020;2023-07-31T08:49:31;18.10;1.00
5743;DHT22;2896;53.500;10.020;2023-07-31T08:51:59;18.30;15.90
5743;DHT22;2896;53.500;10.020;2023-07-31T08:54:26;18.40;1.00
5743;DHT22;2896;53.500;10.020;2023-07-31T08:56:56;18.60;1.00
5743;DHT22;2896;53.500;10.020;2023-07-31T08:59:26;18.70;1.00
5743;DHT22;2896;53.500;10.020;2023-07-31T09:01:54;18.70;1.00
5743;DHT22;2896;53.500;10.020;2023-07-31T09:04:23;18.70;1.00
5743;DHT22;2896;53.500;10.020;2023-07-31T09:06:53;18.60;1.00
5743;DHT22;2896;53.500;10.020;2023-07-31T09:09:22;18.60;1.00
5743;DHT22;2896;53.500;10.020;2023-07-31T09:11:49;18.60;1.00
5743;DHT22;2896;53.500;10.020;2023-07-31T09:14:17;18.50;1.00
5743;DHT22;2896;53.500;10.020;2023-07-31T09:16:54;18.50;1.00
5743;DHT22;2896;53.500;10.020;2023-07-31T09:19:27;20.80;1.00
5743;DHT22;2896;53.500;10.020;2023-07-31T09:21:54;18.40;1.00
5743;DHT22;2896;53.500;10.020;2023-07-31T09:24:29;18.40;1.00
5743;DHT22;2896;53.500;10.020;2023-07-31T09:26:57;18.40;1.00
5743;DHT22;2896;53.500;10.020;2023-07-31T09:29:24;18.40;21.80
5743;DHT22;2896;53.500;10.020;2023-07-31T09:31:52;18.40;17.80
5743;DHT22;2896;53.500;10.020;2023-07-31T09:34:19;18.50;19.60
5743;DHT22;2896;53.500;10.020;2023-07-31T09:36:48;18.40;1.00
5743;DHT22;2896;53.500;10.020;2023-07-31T09:39:17;18.40;1.00
5743;DHT22;2896;53.500;10.020;2023-07-31T09:41:53;18.30;1.00
5743;DHT22;2896;53.500;10.020;2023-07-31T09:44:20;18.40;1.00
5743;DHT22;2896;53.500;10.020;2023-07-31T09:46:47;18.60;1.00
5743;DHT22;2896;53.500;10.020;2023-07-31T09:49:14;18.60;1.00
5743;DHT22;2896;53.500;10.020;2023-07-31T09:51:42;18.60;1.00
5743;DHT22;2896;53.500;10.020;2023-07-31T09:54:12;18.60;3.50
5743;DHT22;2896;53.500;10.020;2023-07-31T09:56:42;18.60;1.00
5743;DHT22;2896;53.500;10.020;2023-07-31T09:59:12;18.60;1.00
5743;DHT22;2896;53.500;10.020;2023-07-31T10:01:40;18.60;1.00
5743;DHT22;2896;53.500;10.020;2023-07-31T10:04:08;18.60;1.00
5743;DHT22;2896;53.500;10.020;2023-07-31T10:06:36;18.60;1.00
5743;DHT22;2896;53.500;10.020;2023-07-31T10:09:04;18.60;1.00
5743;DHT22;2896;53.500;10.020;2023-07-31T10:11:35;18.50;1.00
5743;DHT22;2896;53.500;10.020;2023-07-31T10:14:03;18.50;1.00
5743;DHT22;2896;53.500;10.020;2023-07-31T10:16:31;18.40;1.00
5743;DHT22;2896;53.500;10.020;2023-07-31T10:18:59;18.30;1.00
5743;DHT22;2896;53.500;10.020;2023-07-31T10:21:26;18.30;1.00
5743;DHT22;2896;53.500;10.020;2023-07-31T10:23:53;18.40;1.00
5743;DHT22;2896;53.500;10.020;2023-07-31T10:26:22;18.30;1.00
5743;DHT22;2896;53.500;10.020;2023-07-31T10:28:51;18.20;1.00
5743;DHT22;2896;53.500;10.020;2023-07-31T10:31:19;18.20;3.80
5743;DHT22;2896;53.500;10.020;2023-07-31T10:33:47;18.20;82.00
5743;DHT22;2896;53.500;10.020;2023-07-31T10:36:16;18.20;26.30
5743;DHT22;2896;53.500;10.020;2023-07-31T10:38:43;18.10;30.80
5743;DHT22;2896;53.500;10.020;2023-07-31T10:41:10;18.10;76.30
5743;DHT22;2896;53.500;10.020;2023-07-31T10:43:37;18.00;57.50
5743;DHT22;2896;53.500;10.020;2023-07-31T10:46:07;18.20;99.90
5743;DHT22;2896;53.500;10.020;2023-07-31T10:48:34;17.30;99.90
5743;DHT22;2896;53.500;10.020;2023-07-31T10:51:07;18.20;99.90
5743;DHT22;2896;53.500;10.020;2023-07-31T10:53:34;18.30;99.90
5743;DHT22;2896;53.500;10.020;2023-07-31T10:56:01;18.30;99.90
5743;DHT22;2896;53.500;10.020;2023-07-31T10:58:28;18.40;99.90
5743;DHT22;2896;53.500;10.020;2023-07-31T11:00:59;18.40;99.90
5743;DHT22;2896;53.500;10.020;2023-07-31T11:03:27;18.70;99.90
5743;DHT22;2896;53.500;10.020;2023-07-31T11:06:07;18.70;99.90
5743;DHT22;2896;53.500;10.020;2023-07-31T11:08:36;18.90;99.90
5743;DHT22;2896;53.500;10.020;2023-07-31T11:11:08;19.10;99.90
5743;DHT22;2896;53.500;10.020;2023-07-31T11:13:40;19.20;99.90
5743;DHT22;2896;53.500;10.020;2023-07-31T11:16:07;19.20;62.40
5743;DHT22;2896;53.500;10.020;2023-07-31T11:18:34;19.30;27.10
5743;DHT22;2896;53.500;10.020;2023-07-31T11:21:01;19.30;69.70
5743;DHT22;2896;53.500;10.020;2023-07-31T11:23:30;19.40;47.30
5743;DHT22;2896;53.500;10.020;2023-07-31T11:25:59;19.30;41.00
5743;DHT22;2896;53.500;10.020;2023-07-31T11:28:31;19.40;71.60
5743;DHT22;2896;53.500;10.020;2023-07-31T11:30:58;19.40;99.90
5743;DHT22;2896;53.500;10.020;2023-07-31T11:33:25;19.30;35.70
5743;DHT22;2896;53.500;10.020;2023-07-31T11:35:51;19.30;31.40
5743;DHT22;2896;53.500;10.020;2023-07-31T11:38:22;19.20;4.60
5743;DHT22;2896;53.500;10.020;2023-07-31T11:40:51;19.10;10.80
5743;DHT22;2896;53.500;10.020;2023-07-31T11:43:18;19.10;47.90
5743;DHT22;2896;53.500;10.020;2023-07-31T11:45:47;19.10;56.40
5743;DHT22;2896;53.500;10.020;2023-07-31T11:48:19;19.10;53.90
5743;DHT22;2896;53.500;10.020;2023-07-31T11:50:46;19.00;66.10
5743;DHT22;2896;53.500;10.020;2023-07-31T11:53:14;19.10;89.60
5743;DHT22;2896;53.500;10.020;2023-07-31T11:55:42;19.10;99.90
5743;DHT22;2896;53.500;10.020;2023-07-31T11:58:10;19.00;87.20
5743;DHT22;2896;53.500;10.020;2023-07-31T12:00:37;19.00;99.90
5743;DHT22;2896;53.500;10.020;2023-07-31T12:03:04;19.00;99.90
5743;DHT22;2896;53.500;10.020;2023-07-31T12:05:31;19.00;99.90
5743;DHT22;2896;53.500;10.020;2023-07-31T12:07:57;18.90;99.90
5743;DHT22;2896;53.500;10.020;2023-07-31T12:10:25;18.90;99.90
5743;DHT22;2896;53.500;10.020;2023-07-31T12:12:57;18.90;99.90
5743;DHT22;2896;53.500;10.020;2023-07-31T12:15:32;18.00;99.90
5743;DHT22;2896;53.500;10.020;2023-07-31T12:17:59;20.10;99.90
5743;DHT22;2896;53.500;10.020;2023-07-31T12:20:26;18.90;99.90
5743;DHT22;2896;53.500;10.020;2023-07-31T12:22:56;18.90;99.90
5743;DHT22;2896;53.500;10.020;2023-07-31T12:25:23;19.00;99.90
5743;DHT22;2896;53.500;10.020;2023-07-31T12:27:50;19.00;99.90
5743;DHT22;2896;53.500;10.020;2023-07-31T12:30:27;19.00;99.90
5743;DHT22;2896;53.500;10.020;2023-07-31T12:32:55;19.00;99.90
5743;DHT22;2896;53.500;10.020;2023-07-31T12:35:22;19.00;99.90
5743;DHT22;2896;53.500;10.020;2023-07-31T12:37:49;18.90;99.90
5743;DHT22;2896;53.500;10.020;2023-07-31T12:40:15;18.90;99.90
5743;DHT22;2896;53.500;10.020;2023-07-31T12:42:42;19.00;99.90
5743;DHT22;2896;53.500;10.020;2023-07-31T12:45:09;19.10;99.90
5743;DHT22;2896;53.500;10.020;2023-07-31T12:47:36;19.10;99.90
5743;DHT22;2896;53.500;10.020;2023-07-31T12:50:05;19.10;99.90
5743;DHT22;2896;53.500;10.020;2023-07-31T12:52:31;19.20;99.90
5743;DHT22;2896;53.500;10.020;2023-07-31T12:54:59;19.20;99.90
5743;DHT22;2896;53.500;10.020;2023-07-31T12:57:25;19.20;99.90
5743;DHT22;2896;53.500;10.020;2023-07-31T12:59:52;19.20;99.90
5743;DHT22;2896;53.500;10.020;2023-07-31T13:02:18;19.20;99.90
5743;DHT22;2896;53.500;10.020;2023-07-31T13:04:45;19.30;99.90
5743;DHT22;2896;53.500;10.020;2023-07-31T13:07:14;19.30;99.90
5743;DHT22;2896;53.500;10.020;2023-07-31T13:09:41;19.30;99.90
5743;DHT22;2896;53.500;10.020;2023-07-31T13:12:08;19.40;99.90
5743;DHT22;2896;53.500;10.020;2023-07-31T13:14:35;19.40;99.90
5743;DHT22;2896;53.500;10.020;2023-07-31T13:17:02;19.30;99.90
5743;DHT22;2896;53.500;10.020;2023-07-31T13:19:28;19.30;99.90
5743;DHT22;2896;53.500;10.020;2023-07-31T13:21:55;19.30;99.90
5743;DHT22;2896;53.500;10.020;2023-07-31T13:24:23;19.20;99.90
5743;DHT22;2896;53.500;10.020;2023-07-31T13:26:49;19.20;99.90
5743;DHT22;2896;53.500;10.020;2023-07-31T13:29:16;19.20;99.90
5743;DHT22;2896;53.500;10.020;2023-07-31T13:31:43;16.50;99.90
5743;DHT22;2896;53.500;10.020;2023-07-31T13:34:09;19.20;99.90
5743;DHT22;2896;53.500;10.020;2023-07-31T13:36:36;19.20;99.90
5743;DHT22;2896;53.500;10.020;2023-07-31T13:39:03;19.30;99.90
5743;DHT22;2896;53.500;10.020;2023-07-31T13:41:31;19.40;99.90
5743;DHT22;2896;53.500;10.020;2023-07-31T13:43:57;18.30;99.90
5743;DHT22;2896;53.500;10.020;2023-07-31T13:46:24;19.40;99.90
5743;DHT22;2896;53.500;10.020;2023-07-31T13:48:51;19.60;99.90
5743;DHT22;2896;53.500;10.020;2023-07-31T13:51:20;19.50;99.90
5743;DHT22;2896;53.500;10.020;2023-07-31T13:53:46;19.50;99.90
5743;DHT22;2896;53.500;10.020;2023-07-31T13:56:13;19.60;99.90
5743;DHT22;2896;53.500;10.020;2023-07-31T13:58:41;20.10;99.90
5743;DHT22;2896;53.500;10.020;2023-07-31T14:01:08;19.60;99.90
5743;DHT22;2896;53.500;10.020;2023-07-31T14:03:34;19.70;99.90
5743;DHT22;2896;53.500;10.020;2023-07-31T14:06:01;19.80;99.90
5743;DHT22;2896;53.500;10.020;2023-07-31T14:08:28;20.00;99.90
5743;DHT22;2896;53.500;10.020;2023-07-31T14:10:55;20.00;99.90
5743;DHT22;2896;53.500;10.020;2023-07-31T14:13:21;20.10;99.90
5743;DHT22;2896;53.500;10.020;2023-07-31T14:15:49;19.90;99.90
5743;DHT22;2896;53.500;10.020;2023-07-31T14:18:16;19.90;99.90
5743;DHT22;2896;53.500;10.020;2023-07-31T14:20:42;20.40;99.90
5743;DHT22;2896;53.500;10.020;2023-07-31T14:23:09;19.60;99.90
5743;DHT22;2896;53.500;10.020;2023-07-31T14:25:36;19.40;99.90
5743;DHT22;2896;53.500;10.020;2023-07-31T14:28:03;19.40;99.90
5743;DHT22;2896;53.500;10.020;2023-07-31T14:30:30;19.30;99.90
5743;DHT22;2896;53.500;10.020;2023-07-31T14:32:58;19.20;99.90
5743;DHT22;2896;53.500;10.020;2023-07-31T14:35:26;19.10;99.90
5743;DHT22;2896;53.500;10.020;2023-07-31T14:37:52;19.30;1.00
5743;DHT22;2896;53.500;10.020;2023-07-31T14:40:19;19.10;1.00
5743;DHT22;2896;53.500;10.020;2023-07-31T14:42:45;19.10;1.00
5743;DHT22;2896;53.500;10.020;2023-07-31T14:45:12;19.10;1.00
5743;DHT22;2896;53.500;10.020;2023-07-31T14:47:39;19.10;1.00
5743;DHT22;2896;53.500;10.020;2023-07-31T14:50:07;19.20;1.00
5743;DHT22;2896;53.500;10.020;2023-07-31T14:52:34;19.20;1.00
5743;DHT22;2896;53.500;10.020;2023-07-31T14:55:01;19.20;1.00
5743;DHT22;2896;53.500;10.020;2023-07-31T14:57:28;19.30;1.00
5743;DHT22;2896;53.500;10.020;2023-07-31T14:59:54;19.40;1.00
5743;DHT22;2896;53.500;10.020;2023-07-31T15:02:21;19.30;1.00
5743;DHT22;2896;53.500;10.020;2023-07-31T15:04:48;19.40;1.00
5743;DHT22;2896;53.500;10.020;2023-07-31T15:07:15;19.40;99.90
5743;DHT22;2896;53.500;10.020;2023-07-31T15:09:42;19.30;99.90
5743;DHT22;2896;53.500;10.020;2023-07-31T15:12:09;19.40;99.90
5743;DHT22;2896;53.500;10.020;2023-07-31T15:14:36;19.30;99.90
5743;DHT22;2896;53.500;10.020;2023-07-31T15:17:02;19.40;99.90
5743;DHT22;2896;53.500;10.020;2023-07-31T15:19:29;19.20;99.90
5743;DHT22;2896;53.500;10.020;2023-07-31T15:22:00;19.30;99.90
5743;DHT22;2896;53.500;10.020;2023-07-31T15:24:28;19.30;99.90
5743;DHT22;2896;53.500;10.020;2023-07-31T15:26:54;19.30;99.90
5743;DHT22;2896;53.500;10.020;2023-07-31T15:29:21;19.30;99.90
5743;DHT22;2896;53.500;10.020;2023-07-31T15:31:48;19.20;99.90
5743;DHT22;2896;53.500;10.020;2023-07-31T15:34:16;19.20;1.00
5743;DHT22;2896;53.500;10.020;2023-07-31T15:36:44;19.20;1.00
5743;DHT22;2896;53.500;10.020;2023-07-31T15:39:11;19.20;99.90
5743;DHT22;2896;53.500;10.020;2023-07-31T15:41:39;17.80;1.00
5743;DHT22;2896;53.500;10.020;2023-07-31T15:44:07;19.10;1.00
5743;DHT22;2896;53.500;10.020;2023-07-31T15:46:33;19.10;1.00
5743;DHT22;2896;53.500;10.020;2023-07-31T15:49:00;19.00;1.00
5743;DHT22;2896;53.500;10.020;2023-07-31T15:51:27;18.90;1.00
5743;DHT22;2896;53.500;10.020;2023-07-31T15:53:53;18.80;1.00